createdAt,value
2023-02-27T00:01:21.891Z,101631.63
2023-02-27T00:06:24.904Z,101633.44
2023-02-27T00:11:28.028Z,101635.19
2023-02-27T00:16:32.488Z,101622.97
2023-02-27T00:21:36.771Z,101629.34
2023-02-27T00:26:39.745Z,101618.09
2023-02-27T00:31:43.971Z,101617.13
2023-02-27T00:36:46.852Z,101623.22
2023-02-27T00:41:49.580Z,101633.09
2023-02-27T00:46:53.789Z,101633.09
2023-02-27T00:51:56.601Z,101631.22
2023-02-27T00:56:59.838Z,101629.50
2023-02-27T01:02:04.024Z,101635.72
2023-02-27T01:07:06.800Z,101637.47
2023-02-27T01:12:09.909Z,101634.97
2023-02-27T01:17:14.083Z,101639.38
2023-02-27T01:22:16.894Z,101639.53
2023-02-27T01:27:19.925Z,101636.78
2023-02-27T01:32:24.165Z,101627.09
2023-02-27T01:37:27.170Z,101624.41
2023-02-27T01:42:30.193Z,101624.41
2023-02-27T01:47:34.607Z,101625.28
2023-02-27T01:52:39.677Z,101623.56
2023-02-27T01:57:44.847Z,101625.28
2023-02-27T02:02:57.178Z,101626.22
2023-02-27T02:07:59.960Z,101621.03
2023-02-27T02:13:03.587Z,101619.28
2023-02-27T02:18:19.789Z,101620.19
2023-02-27T02:23:47.771Z,101625.53
2023-02-27T02:29:24.038Z,101626.44
2023-02-27T02:35:15.869Z,101629.22
2023-02-27T02:40:32.635Z,101621.31
2023-02-27T02:45:44.253Z,101616.84
2023-02-27T02:50:53.569Z,101615.13
2023-02-27T02:56:05.539Z,101618.63
2023-02-27T03:01:15.699Z,101614.34
2023-02-27T03:06:23.288Z,101613.47
2023-02-27T03:11:30.763Z,101608.16
2023-02-27T03:16:41.098Z,101617.03
2023-02-27T03:21:49.665Z,101614.41
2023-02-27T03:26:59.430Z,101612.69
2023-02-27T03:32:10.146Z,101610.97
2023-02-27T03:37:26.480Z,101614.41
2023-02-27T03:42:37.425Z,101614.47
2023-02-27T03:47:40.674Z,101628.69
2023-02-27T03:52:45.068Z,101639.41
2023-02-27T03:57:51.914Z,101645.63
2023-02-27T04:02:57.717Z,101652.69
2023-02-27T04:08:33.162Z,101660.41
2023-02-27T04:13:53.432Z,101662.03
2023-02-27T04:19:08.754Z,101670.81
2023-02-27T04:24:20.484Z,101685.19
2023-02-27T04:29:34.711Z,101680.81
2023-02-27T04:34:41.426Z,101692.97
2023-02-27T04:39:51.804Z,101683.25
2023-02-27T04:45:00.825Z,101692.81
2023-02-27T04:50:08.358Z,101682.25
2023-02-27T04:55:15.821Z,101680.50
2023-02-27T05:00:24.109Z,101683.16
2023-02-27T05:05:31.942Z,101687.59
2023-02-27T05:10:40.185Z,101693.88
2023-02-27T05:15:49.673Z,101700.88
2023-02-27T05:20:58.388Z,101705.16
2023-02-27T05:26:06.809Z,101706.06
2023-02-27T05:31:16.675Z,101716.69
2023-02-27T05:36:23.843Z,101728.28
2023-02-27T05:41:29.791Z,101719.53
2023-02-27T05:46:37.244Z,101716.88
2023-02-27T05:51:42.280Z,101716.06
2023-02-27T05:56:47.786Z,101713.44
2023-02-27T06:01:52.062Z,101715.16
2023-02-27T06:06:55.302Z,101720.50
2023-02-27T06:11:58.696Z,101720.50
2023-02-27T06:17:03.381Z,101725.72
2023-02-27T06:22:06.251Z,101730.91
2023-02-27T06:27:09.343Z,101731.75
2023-02-27T06:32:13.493Z,101737.91
2023-02-27T06:37:16.219Z,101741.28
2023-02-27T06:42:19.541Z,101747.91
2023-02-27T06:47:25.086Z,101752.91
2023-02-27T06:52:28.158Z,101751.06
2023-02-27T06:57:31.554Z,101762.59
2023-02-27T07:02:35.762Z,101763.50
2023-02-27T07:07:39.227Z,101760.16
2023-02-27T07:12:42.808Z,101766.50
2023-02-27T07:17:46.921Z,101764.25
2023-02-27T07:22:49.822Z,101768.44
2023-02-27T07:27:52.639Z,101782.53
2023-02-27T07:32:56.752Z,101774.69
2023-02-27T07:37:59.693Z,101786.81
2023-02-27T07:43:02.524Z,101780.59
2023-02-27T07:48:07.106Z,101784.81
2023-02-27T07:53:09.901Z,101789.97
2023-02-27T07:58:12.704Z,101797.78
2023-02-27T08:03:16.898Z,101796.41
2023-02-27T08:08:19.729Z,101795.19
2023-02-27T08:13:35.958Z,101794.41
2023-02-27T08:18:46.496Z,101791.06
2023-02-27T08:23:49.292Z,101785.13
2023-02-27T08:28:52.161Z,101790.44
2023-02-27T08:34:04.526Z,101796.06
2023-02-27T08:39:12.671Z,101795.59
2023-02-27T08:44:15.894Z,101788.03
2023-02-27T08:49:21.649Z,101787.84
2023-02-27T08:54:24.607Z,101790.63
2023-02-27T08:59:27.493Z,101790.53
2023-02-27T09:04:31.761Z,101792.56
2023-02-27T09:09:34.530Z,101795.78
2023-02-27T09:14:37.522Z,101791.34
2023-02-27T09:19:41.681Z,101791.72
2023-02-27T09:24:44.523Z,101790.91
2023-02-27T09:29:48.880Z,101800.97
2023-02-27T09:34:53.028Z,101790.84
2023-02-27T09:39:55.805Z,101802.63
2023-02-27T09:45:05.507Z,101815.25
2023-02-27T09:50:29.574Z,101813.41
2023-02-27T09:55:36.626Z,101818.78
2023-02-27T10:00:48.118Z,101809.00
2023-02-27T10:06:07.221Z,101790.63
2023-02-27T10:11:15.176Z,101783.53
2023-02-27T10:16:21.533Z,101777.72
2023-02-27T10:21:32.350Z,101792.84
2023-02-27T10:26:39.236Z,101784.22
2023-02-27T10:31:43.434Z,101779.59
2023-02-27T10:36:48.657Z,101776.69
2023-02-27T10:41:51.950Z,101777.06
2023-02-27T10:46:54.679Z,101773.97
2023-02-27T10:52:10.584Z,101765.53
2023-02-27T10:57:28.795Z,101778.03
2023-02-27T11:02:38.187Z,101753.72
2023-02-27T11:07:42.478Z,101753.41
2023-02-27T11:13:00.128Z,101751.88
2023-02-27T11:18:21.568Z,101754.63
2023-02-27T11:23:26.653Z,101754.03
2023-02-27T11:28:31.164Z,101763.38
2023-02-27T11:33:39.030Z,101745.03
2023-02-27T11:38:43.323Z,101745.34
2023-02-27T11:43:51.847Z,101732.25
2023-02-27T11:49:01.107Z,101745.22
2023-02-27T11:54:34.785Z,101742.81
2023-02-27T11:59:45.396Z,101748.63
2023-02-27T12:04:53.094Z,101747.44
2023-02-27T12:10:04.603Z,101743.84
2023-02-27T12:15:18.823Z,101763.72
2023-02-27T12:20:27.961Z,101746.56
2023-02-27T12:25:41.972Z,101733.59
2023-02-27T12:30:51.200Z,101738.22
2023-02-27T12:35:59.281Z,101734.91
2023-02-27T12:41:30.400Z,101736.41
2023-02-27T12:46:43.526Z,101736.78
2023-02-27T12:51:55.850Z,101739.53
2023-02-27T12:57:14.929Z,101732.44
2023-02-27T13:02:33.350Z,101738.03
2023-02-27T13:07:39.938Z,101737.66
2023-02-27T13:12:51.982Z,101737.78
2023-02-27T13:17:59.741Z,101743.72
2023-02-27T13:23:14.462Z,101737.50
2023-02-27T13:28:24.937Z,101733.59
2023-02-27T13:33:34.605Z,101730.53
2023-02-27T13:38:43.809Z,101720.41
2023-02-27T13:43:52.552Z,101710.09
2023-02-27T13:48:56.034Z,101707.34
2023-02-27T13:54:13.741Z,101711.91
2023-02-27T13:59:23.679Z,101716.63
2023-02-27T14:04:30.405Z,101707.34
2023-02-27T14:09:38.070Z,101701.63
2023-02-27T14:14:47.728Z,101708.31
2023-02-27T14:19:59.241Z,101719.06
2023-02-27T14:25:06.557Z,101716.41
2023-02-27T14:30:27.608Z,101699.44
2023-02-27T14:35:31.263Z,101696.59
2023-02-27T14:40:41.280Z,101703.13
2023-02-27T14:45:45.469Z,101708.94
2023-02-27T14:50:53.880Z,101714.66
2023-02-27T14:55:58.752Z,101713.03
2023-02-27T15:01:06.279Z,101714.78
2023-02-27T15:06:18.217Z,101722.53
2023-02-27T15:11:23.353Z,101724.97
2023-02-27T15:16:37.553Z,101736.06
2023-02-27T15:21:43.862Z,101733.25
2023-02-27T15:26:48.895Z,101732.81
2023-02-27T15:31:53.896Z,101729.75
2023-02-27T15:36:58.292Z,101729.75
2023-02-27T15:42:03.976Z,101727.91
2023-02-27T15:47:11.302Z,101740.59
2023-02-27T15:52:19.410Z,101742.13
2023-02-27T15:57:24.018Z,101738.50
2023-02-27T16:02:32.345Z,101736.91
2023-02-27T16:07:41.608Z,101738.69
2023-02-27T16:12:45.056Z,101747.56
2023-02-27T16:17:56.720Z,101752.25
2023-02-27T16:23:03.060Z,101747.78
2023-02-27T16:28:05.858Z,101752.91
2023-02-27T16:33:23.352Z,101756.91
2023-02-27T16:38:26.253Z,101761.22
2023-02-27T16:43:28.987Z,101771.66
2023-02-27T16:48:33.114Z,101764.97
2023-02-27T16:53:35.877Z,101770.22
2023-02-27T16:58:38.883Z,101774.16
2023-02-27T17:03:44.190Z,101769.88
2023-02-27T17:08:47.041Z,101773.63
2023-02-27T17:13:49.821Z,101786.13
2023-02-27T17:18:53.899Z,101794.41
2023-02-27T17:23:56.722Z,101795.03
2023-02-27T17:28:59.616Z,101798.94
2023-02-27T17:34:05.574Z,101801.09
2023-02-27T17:39:09.012Z,101805.59
2023-02-27T17:44:12.466Z,101802.09
2023-02-27T17:49:17.063Z,101815.69
2023-02-27T17:54:19.804Z,101809.75
2023-02-27T17:59:22.532Z,101819.81
2023-02-27T18:04:27.093Z,101815.06
2023-02-27T18:09:29.874Z,101811.06
2023-02-27T18:14:32.669Z,101811.34
2023-02-27T18:19:39.515Z,101814.34
2023-02-27T18:24:43.600Z,101816.31
2023-02-27T18:29:46.477Z,101815.66
2023-02-27T18:34:51.192Z,101820.19
2023-02-27T18:39:53.950Z,101820.53
2023-02-27T18:44:56.703Z,101822.34
2023-02-27T18:50:00.846Z,101834.56
2023-02-27T18:55:03.603Z,101828.44
2023-02-27T19:00:08.113Z,101833.09
2023-02-27T19:05:14.547Z,101835.72
2023-02-27T19:10:17.455Z,101842.72
2023-02-27T19:15:20.349Z,101846.28
2023-02-27T19:20:24.670Z,101839.22
2023-02-27T19:25:27.604Z,101844.28
2023-02-27T19:30:30.370Z,101837.09
2023-02-27T19:35:34.572Z,101833.66
2023-02-27T19:40:37.363Z,101840.19
2023-02-27T19:45:41.806Z,101843.25
2023-02-27T19:50:45.992Z,101850.44
2023-02-27T19:55:57.974Z,101849.72
2023-02-27T20:01:00.793Z,101856.16
2023-02-27T20:06:06.333Z,101853.50
2023-02-27T20:11:09.265Z,101848.16
2023-02-27T20:16:15.156Z,101851.94
2023-02-27T20:21:21.949Z,101851.25
2023-02-27T20:26:27.846Z,101853.25
2023-02-27T20:31:32.878Z,101854.34
2023-02-27T20:36:38.181Z,101858.69
2023-02-27T20:41:41.219Z,101855.16
2023-02-27T20:46:45.123Z,101855.22
2023-02-27T20:51:49.402Z,101852.75
2023-02-27T20:56:54.214Z,101863.47
2023-02-27T21:01:57.133Z,101869.66
2023-02-27T21:07:01.283Z,101869.94
2023-02-27T21:12:04.779Z,101869.84
2023-02-27T21:17:07.631Z,101870.81
2023-02-27T21:22:11.836Z,101867.34
2023-02-27T21:27:14.589Z,101872.81
2023-02-27T21:32:18.470Z,101880.97
2023-02-27T21:37:22.726Z,101888.19
2023-02-27T21:42:25.450Z,101880.31
2023-02-27T21:47:29.990Z,101883.88
2023-02-27T21:52:34.109Z,101885.81
2023-02-27T21:57:38.467Z,101880.69
2023-02-27T22:02:41.796Z,101894.91
2023-02-27T22:07:45.895Z,101893.13
2023-02-27T22:12:48.661Z,101903.97
2023-02-27T22:17:52.230Z,101892.81
2023-02-27T22:22:56.360Z,101891.19
2023-02-27T22:27:59.719Z,101892.06
2023-02-27T22:33:02.504Z,101900.09
2023-02-27T22:38:06.693Z,101901.94
2023-02-27T22:43:11.144Z,101896.66
2023-02-27T22:48:13.956Z,101898.50
2023-02-27T22:53:18.070Z,101892.34
2023-02-27T22:58:20.792Z,101897.56
2023-02-27T23:03:23.551Z,101902.16
2023-02-27T23:08:27.645Z,101899.53
2023-02-27T23:13:32.026Z,101904.03
2023-02-27T23:18:34.881Z,101911.94
2023-02-27T23:23:39.241Z,101907.56
2023-02-27T23:28:42.710Z,101906.84
2023-02-27T23:33:45.623Z,101911.31
2023-02-27T23:38:49.769Z,101915.75
2023-02-27T23:43:53.695Z,101907.13
2023-02-27T23:48:56.423Z,101909.91
2023-02-27T23:54:00.981Z,101912.59
2023-02-27T23:59:05.863Z,101905.66
